This is the latest recevied weather packets stored in our database for station/object W7TJC. If no packets are shown the sender has not sent any weather packets the latest 10 day(s).
| Time | Temp. | Humidity | Pressure | Rain* | Wind** | Luminosity | Snow |
|---|---|---|---|---|---|---|---|
| 1777814018 | 13.33° C | 77% | 1015 hPa | 0 mm | - | 0 W/m² | - |
| 1777813715 | 13.33° C | 74% | 1015 hPa | 0 mm | - | 0 W/m² | - |
| 1777813413 | 13.33° C | 74% | 1014.8 hPa | 0 mm | - | 0 W/m² | - |
| 1777813110 | 13.33° C | 74% | 1015 hPa | 0 mm | - | 0 W/m² | - |
| 1777812808 | 13.33° C | 75% | 1014.9 hPa | 0 mm | - | 0 W/m² | - |
| 1777812504 | 12.78° C | 75% | 1014.8 hPa | 0 mm | - | 0 W/m² | - |
| 1777812202 | 13.33° C | 74% | 1014.9 hPa | 0 mm | - | 0 W/m² | - |
| 1777811900 | 12.78° C | 74% | 1015 hPa | 0 mm | - | 0 W/m² | - |
| 1777811599 | 12.78° C | 75% | 1015.1 hPa | 0 mm | - | 0 W/m² | - |
| 1777811293 | 13.33° C | 74% | 1014.9 hPa | 0 mm | - | 0 W/m² | - |
| 1777810991 | 12.78° C | 74% | 1015 hPa | 0 mm | - | 0 W/m² | - |
| 1777810688 | 12.78° C | 75% | 1015.1 hPa | 0 mm | - | 0 W/m² | - |
| 1777810385 | 12.22° C | 76% | 1015.2 hPa | 0 mm | - | 0 W/m² | - |
| 1777810080 | 11.11° C | 79% | 1015 hPa | 0 mm | - | 0 W/m² | - |
| 1777809778 | 11.11° C | 81% | 1015.1 hPa | 0 mm | - | 0 W/m² | - |
| 1777809475 | 11.11° C | 81% | 1015.2 hPa | 0 mm | - | 0 W/m² | - |
| 1777809173 | 11.67° C | 81% | 1015.1 hPa | 0 mm | - | 0 W/m² | - |
| 1777808871 | 11.67° C | 80% | 1015.1 hPa | 0 mm | - | 0 W/m² | - |
| 1777808568 | 12.22° C | 78% | 1015.3 hPa | 0 mm | - | 0 W/m² | - |
| 1777808264 | 12.22° C | 77% | 1015.3 hPa | 0 mm | - | 0 W/m² | - |
| 1777807963 | 12.22° C | 77% | 1015.2 hPa | 0 mm | - | 0 W/m² | - |
| 1777807660 | 11.67° C | 79% | 1015.1 hPa | 0 mm | - | 0 W/m² | - |
| 1777807358 | 11.67° C | 79% | 1015.2 hPa | 0 mm | - | 0 W/m² | - |
| 1777807053 | 11.67° C | 80% | 1015.4 hPa | 0 mm | - | 0 W/m² | - |
| 1777806751 | 11.67° C | 80% | 1015.3 hPa | 0 mm | - | 0 W/m² | - |
* Rain latest hour (hover to see other rain measurements)
** Current wind speed in m/s (hover to see current wind gust speed)